createdAt,value
2022-10-29T03:37:33.168Z,11.60
2022-10-29T03:40:00.006Z,11.70
2022-10-29T03:42:26.874Z,11.60
2022-10-29T03:44:53.767Z,11.60
2022-10-29T03:47:20.578Z,11.60
2022-10-29T03:49:47.427Z,11.60
2022-10-29T03:52:14.265Z,11.60
2022-10-29T03:54:41.111Z,11.60
2022-10-29T03:57:07.982Z,11.60
2022-10-29T03:59:34.913Z,11.50
2022-10-29T04:02:01.949Z,11.40
2022-10-29T04:04:28.905Z,11.40
2022-10-29T04:06:55.815Z,11.30
2022-10-29T04:09:22.706Z,11.30
2022-10-29T04:11:49.610Z,11.30
2022-10-29T04:14:17.078Z,11.30
2022-10-29T04:16:43.926Z,11.30
2022-10-29T04:19:10.804Z,11.30
2022-10-29T04:29:58.268Z,11.30
2022-10-29T04:32:25.166Z,11.30
2022-10-29T04:34:52.041Z,11.30
2022-10-29T04:37:18.887Z,11.30
2022-10-29T04:39:45.816Z,11.30
2022-10-29T04:42:12.658Z,11.30
2022-10-29T04:44:39.511Z,11.30
2022-10-29T04:47:06.540Z,11.20
2022-10-29T04:49:33.454Z,11.10
2022-10-29T04:52:00.411Z,11.20
2022-10-29T04:54:27.267Z,11.20
2022-10-29T04:56:54.253Z,11.10
2022-10-29T04:59:21.132Z,11.10
2022-10-29T05:01:48.000Z,11.10
2022-10-29T05:04:14.873Z,11.00
2022-10-29T05:06:41.761Z,11.00
2022-10-29T05:09:08.659Z,11.00
2022-10-29T05:11:35.558Z,11.00
2022-10-29T05:14:02.622Z,11.00
2022-10-29T05:16:29.493Z,11.00
2022-10-29T05:18:56.356Z,11.00
2022-10-29T05:21:23.271Z,11.00
2022-10-29T05:23:50.157Z,11.00
2022-10-29T05:26:17.053Z,11.00
2022-10-29T05:28:43.954Z,11.00
2022-10-29T05:31:10.803Z,11.00
2022-10-29T05:33:37.686Z,11.00
2022-10-29T05:36:04.918Z,10.90
2022-10-29T05:38:32.273Z,10.90
2022-10-29T05:40:59.590Z,10.90
2022-10-29T05:43:26.879Z,10.90
2022-10-29T05:45:53.761Z,10.90
2022-10-29T05:48:20.959Z,10.90
2022-10-29T05:50:47.868Z,10.80
2022-10-29T05:53:15.367Z,10.90
2022-10-29T05:55:42.739Z,10.80
2022-10-29T05:58:12.760Z,10.70
2022-10-29T06:00:42.465Z,10.60
2022-10-29T06:03:27.421Z,10.50
2022-10-29T06:05:54.264Z,10.40
